Aviation Digital Data Service (ADDS)

Output produced by METARs form (2111 UTC 06 December 2019)
found at http://www.aviationweather.gov/metar/data/
 
METAR text: RKTU 062100Z 07002KT 9999 FEW040 M10/M11 Q1031
Conditions at: RKTU (JONGJU (KAFB-AR , KR) observed 2100 UTC 06 December 2019
Temperature: -10.0°C (14°F)
Dewpoint: -11.0°C (12°F) [RH = 92%]
Pressure (altimeter): 30.44 inches Hg (1031.0 mb)
Winds: from the ENE (70 degrees) at 2 MPH (2 knots; 1.0 m/s)
Visibility: 6 or more miles (10+ km)
Ceiling: at least 12,000 feet AGL
Clouds: few clouds at 4000 feet AGL
Weather: no significant weather observed at this time

METAR text: RKTU 062000Z 13001KT 9999 BKN040 M09/M10 Q1031
Conditions at: RKTU (JONGJU (KAFB-AR , KR) observed 2000 UTC 06 December 2019
Temperature: -9.0°C (16°F)
Dewpoint: -10.0°C (14°F) [RH = 92%]
Pressure (altimeter): 30.44 inches Hg (1031.0 mb)
Winds: from the SE (130 degrees) at 1 MPH (1 knots; 0.5 m/s)
Visibility: 6 or more miles (10+ km)
Ceiling: 4000 feet AGL
Clouds: broken clouds at 4000 feet AGL
Weather: no significant weather observed at this time

METAR text: RKTU 061900Z 20001KT CAVOK M09/M11 Q1032
Conditions at: RKTU (JONGJU (KAFB-AR , KR) observed 1900 UTC 06 December 2019
Temperature: -9.0°C (16°F)
Dewpoint: -11.0°C (12°F) [RH = 85%]
Pressure (altimeter): 30.47 inches Hg (1032.0 mb)
Winds: from the SSW (200 degrees) at 1 MPH (1 knots; 0.5 m/s)
Visibility: 6 or more miles (10+ km)
Ceiling: ceiling and visibility are OK
Clouds: unknown
Weather: no significant weather observed at this time

METAR text: RKTU 061800Z 10001KT CAVOK M09/M10 Q1032
Conditions at: RKTU (JONGJU (KAFB-AR , KR) observed 1800 UTC 06 December 2019
Temperature: -9.0°C (16°F)
Dewpoint: -10.0°C (14°F) [RH = 92%]
Pressure (altimeter): 30.47 inches Hg (1032.0 mb)
Winds: from the E (100 degrees) at 1 MPH (1 knots; 0.5 m/s)
Visibility: 6 or more miles (10+ km)
Ceiling: ceiling and visibility are OK
Clouds: unknown
Weather: no significant weather observed at this time

METAR text: RKTU 061700Z 04001KT CAVOK M09/M10 Q1032
Conditions at: RKTU (JONGJU (KAFB-AR , KR) observed 1700 UTC 06 December 2019
Temperature: -9.0°C (16°F)
Dewpoint: -10.0°C (14°F) [RH = 92%]
Pressure (altimeter): 30.47 inches Hg (1032.0 mb)
Winds: from the NE (40 degrees) at 1 MPH (1 knots; 0.5 m/s)
Visibility: 6 or more miles (10+ km)
Ceiling: ceiling and visibility are OK
Clouds: unknown
Weather: no significant weather observed at this time

METAR text: RKTU 061600Z 11002KT CAVOK M08/M10 Q1032
Conditions at: RKTU (JONGJU (KAFB-AR , KR) observed 1600 UTC 06 December 2019
Temperature: -8.0°C (18°F)
Dewpoint: -10.0°C (14°F) [RH = 85%]
Pressure (altimeter): 30.47 inches Hg (1032.0 mb)
Winds: from the ESE (110 degrees) at 2 MPH (2 knots; 1.0 m/s)
Visibility: 6 or more miles (10+ km)
Ceiling: ceiling and visibility are OK
Clouds: unknown
Weather: no significant weather observed at this time

METAR text: RKTU 061500Z 29001KT CAVOK M08/M11 Q1033
Conditions at: RKTU (JONGJU (KAFB-AR , KR) observed 1500 UTC 06 December 2019
Temperature: -8.0°C (18°F)
Dewpoint: -11.0°C (12°F) [RH = 79%]
Pressure (altimeter): 30.50 inches Hg (1033.0 mb)
Winds: from the WNW (290 degrees) at 1 MPH (1 knots; 0.5 m/s)
Visibility: 6 or more miles (10+ km)
Ceiling: ceiling and visibility are OK
Clouds: unknown
Weather: no significant weather observed at this time

METAR text: RKTU 061400Z 32001KT CAVOK M08/M10 Q1033
Conditions at: RKTU (JONGJU (KAFB-AR , KR) observed 1400 UTC 06 December 2019
Temperature: -8.0°C (18°F)
Dewpoint: -10.0°C (14°F) [RH = 85%]
Pressure (altimeter): 30.50 inches Hg (1033.0 mb)
Winds: from the NW (320 degrees) at 1 MPH (1 knots; 0.5 m/s)
Visibility: 6 or more miles (10+ km)
Ceiling: ceiling and visibility are OK
Clouds: unknown
Weather: no significant weather observed at this time

METAR text: RKTU 061300Z 17002KT CAVOK M06/M11 Q1033
Conditions at: RKTU (JONGJU (KAFB-AR , KR) observed 1300 UTC 06 December 2019
Temperature: -6.0°C (21°F)
Dewpoint: -11.0°C (12°F) [RH = 68%]
Pressure (altimeter): 30.50 inches Hg (1033.0 mb)
Winds: from the S (170 degrees) at 2 MPH (2 knots; 1.0 m/s)
Visibility: 6 or more miles (10+ km)
Ceiling: ceiling and visibility are OK
Clouds: unknown
Weather: no significant weather observed at this time

METAR text: RKTU 061200Z 09001KT CAVOK M06/M10 Q1033
Conditions at: RKTU (JONGJU (KAFB-AR , KR) observed 1200 UTC 06 December 2019
Temperature: -6.0°C (21°F)
Dewpoint: -10.0°C (14°F) [RH = 73%]
Pressure (altimeter): 30.50 inches Hg (1033.0 mb)
Winds: from the E (90 degrees) at 1 MPH (1 knots; 0.5 m/s)
Visibility: 6 or more miles (10+ km)
Ceiling: ceiling and visibility are OK
Clouds: unknown
Weather: no significant weather observed at this time

METAR text: RKTU 061100Z 26001KT CAVOK M06/M11 Q1033
Conditions at: RKTU (JONGJU (KAFB-AR , KR) observed 1100 UTC 06 December 2019
Temperature: -6.0°C (21°F)
Dewpoint: -11.0°C (12°F) [RH = 68%]
Pressure (altimeter): 30.50 inches Hg (1033.0 mb)
Winds: from the W (260 degrees) at 1 MPH (1 knots; 0.5 m/s)
Visibility: 6 or more miles (10+ km)
Ceiling: ceiling and visibility are OK
Clouds: unknown
Weather: no significant weather observed at this time

METAR text: RKTU 061000Z 34002KT CAVOK M04/M12 Q1033
Conditions at: RKTU (JONGJU (KAFB-AR , KR) observed 1000 UTC 06 December 2019
Temperature: -4.0°C (25°F)
Dewpoint: -12.0°C (10°F) [RH = 54%]
Pressure (altimeter): 30.50 inches Hg (1033.0 mb)
Winds: from the NNW (340 degrees) at 2 MPH (2 knots; 1.0 m/s)
Visibility: 6 or more miles (10+ km)
Ceiling: ceiling and visibility are OK
Clouds: unknown
Weather: no significant weather observed at this time

METAR text: RKTU 060900Z 34003KT CAVOK M03/M13 Q1033
Conditions at: RKTU (JONGJU (KAFB-AR , KR) observed 0900 UTC 06 December 2019
Temperature: -3.0°C (27°F)
Dewpoint: -13.0°C ( 9°F) [RH = 46%]
Pressure (altimeter): 30.50 inches Hg (1033.0 mb)
Winds: from the NNW (340 degrees) at 3 MPH (3 knots; 1.5 m/s)
Visibility: 6 or more miles (10+ km)
Ceiling: ceiling and visibility are OK
Clouds: unknown
Weather: no significant weather observed at this time

METAR text: RKTU 060800Z 33004KT CAVOK M01/M14 Q1034
Conditions at: RKTU (JONGJU (KAFB-AR , KR) observed 0800 UTC 06 December 2019
Temperature: -1.0°C (30°F)
Dewpoint: -14.0°C ( 7°F) [RH = 37%]
Pressure (altimeter): 30.53 inches Hg (1034.0 mb)
Winds: from the NNW (330 degrees) at 5 MPH (4 knots; 2.1 m/s)
Visibility: 6 or more miles (10+ km)
Ceiling: ceiling and visibility are OK
Clouds: unknown
Weather: no significant weather observed at this time

METAR text: RKTU 060700Z 02005KT CAVOK 00/M16 Q1034
Conditions at: RKTU (JONGJU (KAFB-AR , KR) observed 0700 UTC 06 December 2019
Temperature: 0.0°C (32°F)
Dewpoint: -16.0°C ( 3°F) [RH = 29%]
Pressure (altimeter): 30.53 inches Hg (1034.0 mb)
Winds: from the NNE (20 degrees) at 6 MPH (5 knots; 2.6 m/s)
Visibility: 6 or more miles (10+ km)
Ceiling: ceiling and visibility are OK
Clouds: unknown
Weather: no significant weather observed at this time

METAR text: RKTU 060600Z 03003KT CAVOK 00/M16 Q1034
Conditions at: RKTU (JONGJU (KAFB-AR , KR) observed 0600 UTC 06 December 2019
Temperature: 0.0°C (32°F)
Dewpoint: -16.0°C ( 3°F) [RH = 29%]
Pressure (altimeter): 30.53 inches Hg (1034.0 mb)
Winds: from the NNE (30 degrees) at 3 MPH (3 knots; 1.5 m/s)
Visibility: 6 or more miles (10+ km)
Ceiling: ceiling and visibility are OK
Clouds: unknown
Weather: no significant weather observed at this time

METAR text: RKTU 060500Z 20002KT CAVOK 00/M15 Q1035
Conditions at: RKTU (JONGJU (KAFB-AR , KR) observed 0500 UTC 06 December 2019
Temperature: 0.0°C (32°F)
Dewpoint: -15.0°C ( 5°F) [RH = 31%]
Pressure (altimeter): 30.56 inches Hg (1035.0 mb)
Winds: from the SSW (200 degrees) at 2 MPH (2 knots; 1.0 m/s)
Visibility: 6 or more miles (10+ km)
Ceiling: ceiling and visibility are OK
Clouds: unknown
Weather: no significant weather observed at this time

METAR text: RKTU 060400Z 03001KT CAVOK M02/M15 Q1036
Conditions at: RKTU (JONGJU (KAFB-AR , KR) observed 0400 UTC 06 December 2019
Temperature: -2.0°C (28°F)
Dewpoint: -15.0°C ( 5°F) [RH = 36%]
Pressure (altimeter): 30.59 inches Hg (1036.0 mb)
Winds: from the NNE (30 degrees) at 1 MPH (1 knots; 0.5 m/s)
Visibility: 6 or more miles (10+ km)
Ceiling: ceiling and visibility are OK
Clouds: unknown
Weather: no significant weather observed at this time

METAR text: RKTU 060300Z 18001KT CAVOK M03/M14 Q1036
Conditions at: RKTU (JONGJU (KAFB-AR , KR) observed 0300 UTC 06 December 2019
Temperature: -3.0°C (27°F)
Dewpoint: -14.0°C ( 7°F) [RH = 42%]
Pressure (altimeter): 30.59 inches Hg (1036.0 mb)
Winds: from the S (180 degrees) at 1 MPH (1 knots; 0.5 m/s)
Visibility: 6 or more miles (10+ km)
Ceiling: ceiling and visibility are OK
Clouds: unknown
Weather: no significant weather observed at this time

METAR text: RKTU 060200Z 24001KT CAVOK M04/M16 Q1038
Conditions at: RKTU (JONGJU (KAFB-AR , KR) observed 0200 UTC 06 December 2019
Temperature: -4.0°C (25°F)
Dewpoint: -16.0°C ( 3°F) [RH = 39%]
Pressure (altimeter): 30.65 inches Hg (1038.0 mb)
Winds: from the WSW (240 degrees) at 1 MPH (1 knots; 0.5 m/s)
Visibility: 6 or more miles (10+ km)
Ceiling: ceiling and visibility are OK
Clouds: unknown
Weather: no significant weather observed at this time

METAR text: RKTU 060100Z 23001KT CAVOK M06/M12 Q1038
Conditions at: RKTU (JONGJU (KAFB-AR , KR) observed 0100 UTC 06 December 2019
Temperature: -6.0°C (21°F)
Dewpoint: -12.0°C (10°F) [RH = 62%]
Pressure (altimeter): 30.65 inches Hg (1038.0 mb)
Winds: from the SW (230 degrees) at 1 MPH (1 knots; 0.5 m/s)
Visibility: 6 or more miles (10+ km)
Ceiling: ceiling and visibility are OK
Clouds: unknown
Weather: no significant weather observed at this time

METAR text: RKTU 060000Z 01001KT CAVOK M09/M11 Q1038
Conditions at: RKTU (JONGJU (KAFB-AR , KR) observed 0000 UTC 06 December 2019
Temperature: -9.0°C (16°F)
Dewpoint: -11.0°C (12°F) [RH = 85%]
Pressure (altimeter): 30.65 inches Hg (1038.0 mb)
Winds: from the N (10 degrees) at 1 MPH (1 knots; 0.5 m/s)
Visibility: 6 or more miles (10+ km)
Ceiling: ceiling and visibility are OK
Clouds: unknown
Weather: no significant weather observed at this time

METAR text: RKTU 052300Z 24001KT CAVOK M10/M12 Q1038
Conditions at: RKTU (JONGJU (KAFB-AR , KR) observed 2300 UTC 05 December 2019
Temperature: -10.0°C (14°F)
Dewpoint: -12.0°C (10°F) [RH = 85%]
Pressure (altimeter): 30.65 inches Hg (1038.0 mb)
Winds: from the WSW (240 degrees) at 1 MPH (1 knots; 0.5 m/s)
Visibility: 6 or more miles (10+ km)
Ceiling: ceiling and visibility are OK
Clouds: unknown
Weather: no significant weather observed at this time

METAR text: RKTU 052200Z 06001KT CAVOK M11/M12 Q1038
Conditions at: RKTU (JONGJU (KAFB-AR , KR) observed 2200 UTC 05 December 2019
Temperature: -11.0°C (12°F)
Dewpoint: -12.0°C (10°F) [RH = 92%]
Pressure (altimeter): 30.65 inches Hg (1038.0 mb)
Winds: from the ENE (60 degrees) at 1 MPH (1 knots; 0.5 m/s)
Visibility: 6 or more miles (10+ km)
Ceiling: ceiling and visibility are OK
Clouds: unknown
Weather: no significant weather observed at this time

METAR text: RKTU 052100Z 01001KT CAVOK M10/M13 Q1038
Conditions at: RKTU (JONGJU (KAFB-AR , KR) observed 2100 UTC 05 December 2019
Temperature: -10.0°C (14°F)
Dewpoint: -13.0°C ( 9°F) [RH = 79%]
Pressure (altimeter): 30.65 inches Hg (1038.0 mb)
Winds: from the N (10 degrees) at 1 MPH (1 knots; 0.5 m/s)
Visibility: 6 or more miles (10+ km)
Ceiling: ceiling and visibility are OK
Clouds: unknown
Weather: no significant weather observed at this time

METAR text: RKTU 052000Z 24002KT CAVOK M10/M12 Q1038
Conditions at: RKTU (JONGJU (KAFB-AR , KR) observed 2000 UTC 05 December 2019
Temperature: -10.0°C (14°F)
Dewpoint: -12.0°C (10°F) [RH = 85%]
Pressure (altimeter): 30.65 inches Hg (1038.0 mb)
Winds: from the WSW (240 degrees) at 2 MPH (2 knots; 1.0 m/s)
Visibility: 6 or more miles (10+ km)
Ceiling: ceiling and visibility are OK
Clouds: unknown
Weather: no significant weather observed at this time

METAR text: RKTU 051900Z 01001KT CAVOK M09/M14 Q1038
Conditions at: RKTU (JONGJU (KAFB-AR , KR) observed 1900 UTC 05 December 2019
Temperature: -9.0°C (16°F)
Dewpoint: -14.0°C ( 7°F) [RH = 67%]
Pressure (altimeter): 30.65 inches Hg (1038.0 mb)
Winds: from the N (10 degrees) at 1 MPH (1 knots; 0.5 m/s)
Visibility: 6 or more miles (10+ km)
Ceiling: ceiling and visibility are OK
Clouds: unknown
Weather: no significant weather observed at this time

METAR text: RKTU 051800Z 04003KT CAVOK M08/M13 Q1038
Conditions at: RKTU (JONGJU (KAFB-AR , KR) observed 1800 UTC 05 December 2019
Temperature: -8.0°C (18°F)
Dewpoint: -13.0°C ( 9°F) [RH = 67%]
Pressure (altimeter): 30.65 inches Hg (1038.0 mb)
Winds: from the NE (40 degrees) at 3 MPH (3 knots; 1.5 m/s)
Visibility: 6 or more miles (10+ km)
Ceiling: ceiling and visibility are OK
Clouds: unknown
Weather: no significant weather observed at this time

METAR text: RKTU 051700Z 07001KT CAVOK M09/M11 Q1037
Conditions at: RKTU (JONGJU (KAFB-AR , KR) observed 1700 UTC 05 December 2019
Temperature: -9.0°C (16°F)
Dewpoint: -11.0°C (12°F) [RH = 85%]
Pressure (altimeter): 30.62 inches Hg (1037.0 mb)
Winds: from the ENE (70 degrees) at 1 MPH (1 knots; 0.5 m/s)
Visibility: 6 or more miles (10+ km)
Ceiling: ceiling and visibility are OK
Clouds: unknown
Weather: no significant weather observed at this time

METAR text: RKTU 051600Z 30003KT CAVOK M08/M12 Q1037
Conditions at: RKTU (JONGJU (KAFB-AR , KR) observed 1600 UTC 05 December 2019
Temperature: -8.0°C (18°F)
Dewpoint: -12.0°C (10°F) [RH = 73%]
Pressure (altimeter): 30.62 inches Hg (1037.0 mb)
Winds: from the WNW (300 degrees) at 3 MPH (3 knots; 1.5 m/s)
Visibility: 6 or more miles (10+ km)
Ceiling: ceiling and visibility are OK
Clouds: unknown
Weather: no significant weather observed at this time

METAR text: RKTU 051500Z 32003KT CAVOK M07/M12 Q1048
Conditions at: RKTU (JONGJU (KAFB-AR , KR) observed 1500 UTC 05 December 2019
Temperature: -7.0°C (19°F)
Dewpoint: -12.0°C (10°F) [RH = 67%]
Pressure (altimeter): 30.94 inches Hg (1048.0 mb)
Winds: from the NW (320 degrees) at 3 MPH (3 knots; 1.5 m/s)
Visibility: 6 or more miles (10+ km)
Ceiling: ceiling and visibility are OK
Clouds: unknown
Weather: no significant weather observed at this time

METAR text: RKTU 051400Z 30005KT 9999 FEW030 M06/M12 Q1038
Conditions at: RKTU (JONGJU (KAFB-AR , KR) observed 1400 UTC 05 December 2019
Temperature: -6.0°C (21°F)
Dewpoint: -12.0°C (10°F) [RH = 62%]
Pressure (altimeter): 30.65 inches Hg (1038.0 mb)
Winds: from the WNW (300 degrees) at 6 MPH (5 knots; 2.6 m/s)
Visibility: 6 or more miles (10+ km)
Ceiling: at least 12,000 feet AGL
Clouds: few clouds at 3000 feet AGL
Weather: no significant weather observed at this time

METAR text: RKTU 051300Z 30005KT 9999 FEW030 M06/M12 Q1038
Conditions at: RKTU (JONGJU (KAFB-AR , KR) observed 1300 UTC 05 December 2019
Temperature: -6.0°C (21°F)
Dewpoint: -12.0°C (10°F) [RH = 62%]
Pressure (altimeter): 30.65 inches Hg (1038.0 mb)
Winds: from the WNW (300 degrees) at 6 MPH (5 knots; 2.6 m/s)
Visibility: 6 or more miles (10+ km)
Ceiling: at least 12,000 feet AGL
Clouds: few clouds at 3000 feet AGL
Weather: no significant weather observed at this time

METAR text: RKTU 051200Z 30004KT 9999 FEW030 M05/M11 Q1037
Conditions at: RKTU (JONGJU (KAFB-AR , KR) observed 1200 UTC 05 December 2019
Temperature: -5.0°C (23°F)
Dewpoint: -11.0°C (12°F) [RH = 63%]
Pressure (altimeter): 30.62 inches Hg (1037.0 mb)
Winds: from the WNW (300 degrees) at 5 MPH (4 knots; 2.1 m/s)
Visibility: 6 or more miles (10+ km)
Ceiling: at least 12,000 feet AGL
Clouds: few clouds at 3000 feet AGL
Weather: no significant weather observed at this time

METAR text: RKTU 051100Z 30006KT 9999 FEW030 M04/M11 Q1036
Conditions at: RKTU (JONGJU (KAFB-AR , KR) observed 1100 UTC 05 December 2019
Temperature: -4.0°C (25°F)
Dewpoint: -11.0°C (12°F) [RH = 58%]
Pressure (altimeter): 30.59 inches Hg (1036.0 mb)
Winds: from the WNW (300 degrees) at 7 MPH (6 knots; 3.1 m/s)
Visibility: 6 or more miles (10+ km)
Ceiling: at least 12,000 feet AGL
Clouds: few clouds at 3000 feet AGL
Weather: no significant weather observed at this time

METAR text: RKTU 051000Z 31010KT 9999 FEW040 M03/M10 Q1036
Conditions at: RKTU (JONGJU (KAFB-AR , KR) observed 1000 UTC 05 December 2019
Temperature: -3.0°C (27°F)
Dewpoint: -10.0°C (14°F) [RH = 58%]
Pressure (altimeter): 30.59 inches Hg (1036.0 mb)
Winds: from the NW (310 degrees) at 12 MPH (10 knots; 5.1 m/s)
Visibility: 6 or more miles (10+ km)
Ceiling: at least 12,000 feet AGL
Clouds: few clouds at 4000 feet AGL
Weather: no significant weather observed at this time

Forecast for: RKTU (JONGJU (KAFB-AR , KR)
Text: TAF RKTU 061700Z 0618/0724 30006KT 9999 SCT030 TNM10/0621Z TX03/0706Z
Forecast period: 1800 to 2100 UTC 06 December 2019
Forecast type: FROM: standard forecast or significant change
Winds: from the WNW (300 degrees) at 7 MPH (6 knots; 3.1 m/s)
Visibility: 6 or more miles 10+ km)
Ceiling: at least 12,000 feet AGL
Clouds: scattered clouds at 3000 feet AGL
Weather: no significant weather forecast for this period
Text: BECMG 0621/0622 BKN030
Forecast period: 2100 UTC 06 December 2019 to 0800 UTC 07 December 2019
Forecast type: BECOMING: Conditions expected to become as follows by 2200 UTC 06 December 2019
Winds: from the WNW (300 degrees) at 7 MPH (6 knots; 3.1 m/s)
Visibility: 6 or more miles 10+ km)
Ceiling: 3000 feet AGL
Clouds: broken clouds at 3000 feet AGL
Weather: no significant weather forecast for this period
Text: BECMG 0708/0709 SCT030
Forecast period: 0800 UTC 07 December 2019 to 0000 UTC 08 December 2019
Forecast type: BECOMING: Conditions expected to become as follows by 0900 UTC 07 December 2019
Winds: from the WNW (300 degrees) at 7 MPH (6 knots; 3.1 m/s)
Visibility: 6 or more miles 10+ km)
Ceiling: at least 12,000 feet AGL
Clouds: scattered clouds at 3000 feet AGL
Weather: no significant weather forecast for this period